createdAt,value
2019-05-18T00:00:44.406Z,10.37
2019-05-18T00:03:10.317Z,11.50
2019-05-18T00:05:36.258Z,11.63
2019-05-18T00:08:02.384Z,11.67
2019-05-18T00:10:28.465Z,11.70
2019-05-18T00:12:54.964Z,11.27
2019-05-18T00:15:21.414Z,12.33
2019-05-18T00:17:47.404Z,10.97
2019-05-18T00:20:14.024Z,11.30
2019-05-18T00:22:39.938Z,12.80
2019-05-18T00:25:07.106Z,12.07
2019-05-18T00:27:33.215Z,10.63
2019-05-18T00:29:59.271Z,11.60
2019-05-18T00:32:25.408Z,10.50
2019-05-18T00:34:51.368Z,9.83
2019-05-18T00:37:17.679Z,10.03
2019-05-18T00:39:43.620Z,11.00
2019-05-18T00:42:09.639Z,11.53
2019-05-18T00:44:50.463Z,12.00
2019-05-18T00:47:16.669Z,11.40
2019-05-18T00:49:42.802Z,12.50
2019-05-18T00:52:08.702Z,11.90
2019-05-18T00:54:34.758Z,12.40
2019-05-18T00:57:00.769Z,12.13
2019-05-18T00:59:26.776Z,11.50
2019-05-18T01:01:52.836Z,11.40
2019-05-18T01:04:18.924Z,12.47
2019-05-18T01:06:45.977Z,10.97
2019-05-18T01:09:12.057Z,11.80
2019-05-18T01:11:37.957Z,10.37
2019-05-18T01:14:04.373Z,11.47
2019-05-18T01:16:30.376Z,12.23
2019-05-18T01:18:56.460Z,12.83
2019-05-18T01:21:22.580Z,12.73
2019-05-18T01:23:48.644Z,15.07
2019-05-18T01:26:14.891Z,14.23
2019-05-18T01:28:41.223Z,12.90
2019-05-18T01:31:07.228Z,14.03
2019-05-18T01:33:34.295Z,14.03
2019-05-18T01:36:00.259Z,15.10
2019-05-18T01:38:26.219Z,16.50
2019-05-18T01:40:52.413Z,17.47
2019-05-18T01:43:18.667Z,15.73
2019-05-18T01:45:44.616Z,13.43
2019-05-18T01:48:14.139Z,14.30
2019-05-18T01:50:39.597Z,13.80
2019-05-18T01:53:05.502Z,13.33
2019-05-18T01:55:31.538Z,14.40
2019-05-18T01:57:57.451Z,15.53
2019-05-18T02:00:23.739Z,15.40
2019-05-18T02:02:49.650Z,13.93
2019-05-18T02:05:15.691Z,13.87
2019-05-18T02:07:41.606Z,14.00
2019-05-18T02:10:08.528Z,12.57
2019-05-18T02:12:34.646Z,12.53
2019-05-18T02:15:00.591Z,13.03
2019-05-18T02:17:26.498Z,13.17
2019-05-18T02:19:53.077Z,13.63
2019-05-18T02:22:19.097Z,13.20
2019-05-18T02:24:45.178Z,13.20
2019-05-18T02:27:11.109Z,12.70
2019-05-18T02:29:37.140Z,13.40
2019-05-18T02:32:03.263Z,14.90
2019-05-18T02:34:29.336Z,14.90
2019-05-18T02:36:55.226Z,15.20
2019-05-18T02:39:21.493Z,15.47
2019-05-18T02:41:47.660Z,12.53
2019-05-18T02:44:13.601Z,14.87
2019-05-18T02:46:39.543Z,15.13
2019-05-18T02:49:05.603Z,14.80
2019-05-18T02:51:31.510Z,16.20
2019-05-18T02:53:57.793Z,14.20
2019-05-18T02:56:23.836Z,13.00
2019-05-18T02:58:49.876Z,14.10
2019-05-18T03:01:16.054Z,12.83
2019-05-18T03:03:42.034Z,13.93
2019-05-18T03:06:08.061Z,15.27
2019-05-18T03:08:34.293Z,13.77
2019-05-18T03:11:00.222Z,13.40
2019-05-18T03:13:26.394Z,13.80
2019-05-18T03:15:52.543Z,13.17
2019-05-18T03:18:18.978Z,14.17
2019-05-18T03:20:45.207Z,13.63
2019-05-18T03:23:11.226Z,14.57
2019-05-18T03:25:37.136Z,11.97
2019-05-18T03:28:03.466Z,12.67
2019-05-18T03:30:29.520Z,12.73
2019-05-18T03:32:55.465Z,13.60
2019-05-18T03:35:21.448Z,13.43
2019-05-18T03:37:47.489Z,14.83
2019-05-18T03:40:13.535Z,15.17
2019-05-18T03:42:39.436Z,14.10
2019-05-18T03:45:06.929Z,12.13
2019-05-18T03:47:33.939Z,10.87
2019-05-18T03:49:59.849Z,11.17
2019-05-18T03:52:25.819Z,11.00
2019-05-18T03:54:51.823Z,10.97
2019-05-18T03:57:18.023Z,11.53
2019-05-18T03:59:43.971Z,11.80
2019-05-18T04:02:09.917Z,9.70
2019-05-18T04:04:35.957Z,10.87
2019-05-18T04:07:01.862Z,11.87
2019-05-18T04:09:27.828Z,11.83
2019-05-18T04:11:53.795Z,11.37
2019-05-18T04:14:19.759Z,11.60
2019-05-18T04:16:45.785Z,12.33
2019-05-18T04:19:11.864Z,10.23
2019-05-18T04:21:37.852Z,12.50
2019-05-18T04:24:03.815Z,12.10
2019-05-18T04:26:29.724Z,12.10
2019-05-18T04:28:56.682Z,13.40
2019-05-18T04:31:22.571Z,12.00
2019-05-18T04:33:48.523Z,10.50
2019-05-18T04:36:14.429Z,8.87
2019-05-18T04:38:40.386Z,8.80
2019-05-18T04:41:06.451Z,8.77
2019-05-18T04:43:32.522Z,8.57
2019-05-18T04:45:58.445Z,9.50
2019-05-18T04:48:24.575Z,9.30
2019-05-18T04:50:50.478Z,8.80
2019-05-18T04:53:16.531Z,9.23
2019-05-18T04:55:42.451Z,9.20
2019-05-18T04:58:08.399Z,9.40
2019-05-18T05:00:34.488Z,8.60
2019-05-18T05:03:00.439Z,8.70
2019-05-18T05:05:26.387Z,9.20
2019-05-18T05:07:52.327Z,8.90
2019-05-18T05:10:18.275Z,8.77
2019-05-18T05:12:44.315Z,8.60
2019-05-18T05:15:10.687Z,9.23
2019-05-18T05:17:36.604Z,11.03
2019-05-18T05:20:18.329Z,10.80
2019-05-18T05:22:32.270Z,11.20
2019-05-18T05:24:59.319Z,12.07
2019-05-18T05:27:25.228Z,13.07
2019-05-18T05:29:51.165Z,12.97
2019-05-18T05:32:17.081Z,13.17
2019-05-18T05:34:43.073Z,13.80
2019-05-18T05:37:09.441Z,13.97
2019-05-18T05:39:35.546Z,14.00
2019-05-18T05:42:01.608Z,14.63
2019-05-18T05:44:27.679Z,14.10
2019-05-18T05:46:53.588Z,14.63
2019-05-18T05:49:19.536Z,14.53
2019-05-18T05:51:45.625Z,13.57
2019-05-18T05:54:11.599Z,14.93
2019-05-18T05:56:37.505Z,13.77
2019-05-18T05:59:03.508Z,14.50
2019-05-18T06:01:30.455Z,14.90
2019-05-18T06:03:56.444Z,14.00
2019-05-18T06:06:23.131Z,14.53
2019-05-18T06:08:49.167Z,13.48
2019-05-18T06:11:15.118Z,14.23
2019-05-18T06:13:41.059Z,14.30
2019-05-18T06:16:07.228Z,15.13
2019-05-18T06:18:33.238Z,14.38
2019-05-18T06:20:59.137Z,14.25
2019-05-18T06:23:25.055Z,13.53
2019-05-18T06:25:51.053Z,13.03
2019-05-18T06:28:16.971Z,13.93
2019-05-18T06:30:42.953Z,12.98
2019-05-18T06:33:08.964Z,12.90
2019-05-18T06:35:34.921Z,11.80
2019-05-18T06:38:00.969Z,11.90
2019-05-18T06:40:27.047Z,11.83
2019-05-18T06:42:52.969Z,11.00
2019-05-18T06:45:19.223Z,11.95
2019-05-18T06:47:48.264Z,10.82
2019-05-18T06:50:13.717Z,10.03
2019-05-18T06:52:39.835Z,10.23
2019-05-18T06:55:06.186Z,8.40
2019-05-18T06:57:32.895Z,9.17
2019-05-18T07:00:00.132Z,7.08
2019-05-18T07:02:27.165Z,8.77
2019-05-18T07:04:53.137Z,8.28
2019-05-18T07:07:19.238Z,6.53
2019-05-18T07:09:45.197Z,6.35
2019-05-18T07:12:11.220Z,5.60
2019-05-18T07:14:37.163Z,5.40
2019-05-18T07:17:03.170Z,5.70
2019-05-18T07:19:29.247Z,6.10
2019-05-18T07:21:55.192Z,6.10
2019-05-18T07:24:21.103Z,5.87
2019-05-18T07:26:47.054Z,5.80
2019-05-18T07:29:13.373Z,5.80
2019-05-18T07:31:39.451Z,5.42
2019-05-18T07:34:05.364Z,5.97
2019-05-18T07:36:31.314Z,5.72
2019-05-18T07:38:57.226Z,5.97
2019-05-18T07:41:23.266Z,5.78
2019-05-18T07:43:49.177Z,5.85
2019-05-18T07:46:15.122Z,6.17
2019-05-18T07:48:41.494Z,6.58
2019-05-18T07:51:07.715Z,5.95
2019-05-18T07:53:33.643Z,6.17
2019-05-18T07:55:59.615Z,6.53
2019-05-18T07:58:25.937Z,5.70
2019-05-18T08:00:52.894Z,6.12
2019-05-18T08:03:18.844Z,6.83
2019-05-18T08:05:44.980Z,6.12
2019-05-18T08:08:10.894Z,5.78
2019-05-18T08:10:37.146Z,5.80
2019-05-18T08:13:03.759Z,6.03
2019-05-18T08:15:29.879Z,6.22
2019-05-18T08:17:55.794Z,5.72
2019-05-18T08:20:21.754Z,6.42
2019-05-18T08:22:47.891Z,6.53
2019-05-18T08:25:14.095Z,6.78
2019-05-18T08:27:40.188Z,6.78
2019-05-18T08:30:06.504Z,6.33
2019-05-18T08:32:32.477Z,6.73
2019-05-18T08:34:58.610Z,6.27
2019-05-18T08:37:24.566Z,5.43
2019-05-18T08:39:51.787Z,5.13
2019-05-18T08:42:17.806Z,5.33
2019-05-18T08:44:43.882Z,4.70
2019-05-18T08:47:09.830Z,5.20
2019-05-18T08:49:36.105Z,5.20
2019-05-18T08:52:08.235Z,5.30
2019-05-18T08:54:30.335Z,4.90
2019-05-18T08:56:57.414Z,5.20
2019-05-18T08:59:23.326Z,4.75
2019-05-18T09:01:49.568Z,5.35
2019-05-18T09:04:15.462Z,5.13
2019-05-18T09:06:41.608Z,4.30
2019-05-18T09:09:07.601Z,4.43
2019-05-18T09:11:33.647Z,4.37
2019-05-18T09:14:00.040Z,3.13
2019-05-18T09:16:25.984Z,3.70
2019-05-18T09:18:52.085Z,3.90
2019-05-18T09:21:18.186Z,4.33
2019-05-18T09:23:44.087Z,3.72
2019-05-18T09:26:10.210Z,3.90
2019-05-18T09:28:36.236Z,3.80
2019-05-18T09:31:02.384Z,4.60
2019-05-18T09:33:28.283Z,3.77
2019-05-18T09:35:55.535Z,4.25
2019-05-18T09:38:22.008Z,4.00
2019-05-18T09:40:48.085Z,3.67
2019-05-18T09:43:14.265Z,3.80
2019-05-18T09:45:40.253Z,3.62
2019-05-18T09:48:06.501Z,3.58
2019-05-18T09:50:32.715Z,3.67
2019-05-18T09:52:58.663Z,3.50
2019-05-18T09:55:24.673Z,3.20
2019-05-18T09:57:50.649Z,3.22
2019-05-18T10:00:18.978Z,3.42
2019-05-18T10:02:45.011Z,3.12
2019-05-18T10:05:11.439Z,3.35
2019-05-18T10:07:37.635Z,3.10
2019-05-18T10:10:05.752Z,3.00
2019-05-18T10:12:32.131Z,3.50
2019-05-18T10:14:58.184Z,3.20
2019-05-18T10:17:24.491Z,3.00
2019-05-18T10:19:50.399Z,3.22
2019-05-18T10:22:16.345Z,3.12
2019-05-18T10:24:42.336Z,2.90
2019-05-18T10:27:08.456Z,3.12
2019-05-18T10:29:34.424Z,2.72
2019-05-18T10:32:00.619Z,3.30
2019-05-18T10:34:26.628Z,3.10
2019-05-18T10:36:52.566Z,3.85
2019-05-18T10:39:18.473Z,4.22
2019-05-18T10:41:44.423Z,3.60
2019-05-18T10:44:10.557Z,3.87
2019-05-18T10:46:36.614Z,3.70
2019-05-18T10:49:03.194Z,3.77
2019-05-18T10:51:29.134Z,3.42
2019-05-18T10:53:55.158Z,3.60
2019-05-18T10:56:21.329Z,3.40
2019-05-18T10:58:47.233Z,3.50
2019-05-18T11:01:13.327Z,3.52
2019-05-18T11:03:39.234Z,3.60
2019-05-18T11:06:05.639Z,3.40
2019-05-18T11:08:31.610Z,3.35
2019-05-18T11:10:57.740Z,3.27
2019-05-18T11:13:23.784Z,3.17
2019-05-18T11:15:49.701Z,3.47
2019-05-18T11:18:15.775Z,3.40
2019-05-18T11:20:41.704Z,3.60
2019-05-18T11:23:07.633Z,3.00
2019-05-18T11:25:33.558Z,3.10
2019-05-18T11:27:59.705Z,3.10
2019-05-18T11:30:25.819Z,2.98
2019-05-18T11:32:51.997Z,3.50
2019-05-18T11:35:18.908Z,3.10
2019-05-18T11:37:44.966Z,2.80
2019-05-18T11:40:11.506Z,3.00
2019-05-18T11:42:37.498Z,2.98
2019-05-18T11:45:09.174Z,3.08
2019-05-18T11:47:35.217Z,3.00
2019-05-18T11:50:01.277Z,3.10
2019-05-18T11:52:27.297Z,2.80
2019-05-18T11:54:53.179Z,3.05
2019-05-18T11:57:19.261Z,2.80
2019-05-18T11:59:45.180Z,2.60
2019-05-18T12:02:11.258Z,2.50
2019-05-18T12:04:37.289Z,2.85
2019-05-18T12:07:03.872Z,2.45
2019-05-18T12:09:29.926Z,2.30
2019-05-18T12:11:55.825Z,2.30
2019-05-18T12:14:22.386Z,2.47
2019-05-18T12:16:48.528Z,2.40
2019-05-18T12:19:14.623Z,2.30
2019-05-18T12:21:41.766Z,2.40
2019-05-18T12:24:15.311Z,2.00
2019-05-18T12:26:35.622Z,2.10
2019-05-18T12:29:01.747Z,2.17
2019-05-18T12:31:27.887Z,2.20
2019-05-18T12:33:53.883Z,2.25
2019-05-18T12:36:19.935Z,2.30
2019-05-18T12:38:46.944Z,2.17
2019-05-18T12:41:12.983Z,2.02
2019-05-18T12:43:38.987Z,2.08
2019-05-18T12:46:04.945Z,2.10
2019-05-18T12:48:30.851Z,2.00
2019-05-18T12:50:56.894Z,1.85
2019-05-18T12:53:22.834Z,2.02
2019-05-18T12:55:48.774Z,2.10
2019-05-18T12:58:14.861Z,2.12
2019-05-18T13:00:40.873Z,2.00
2019-05-18T13:03:06.962Z,1.98
2019-05-18T13:05:33.054Z,1.87
2019-05-18T13:07:59.283Z,1.80
2019-05-18T13:10:25.205Z,1.80
2019-05-18T13:12:51.116Z,1.75
2019-05-18T13:15:17.692Z,2.02
2019-05-18T13:17:43.782Z,2.00
2019-05-18T13:20:11.803Z,1.82
2019-05-18T13:22:38.079Z,2.00
2019-05-18T13:25:04.738Z,2.05
2019-05-18T13:27:39.303Z,2.00
2019-05-18T13:29:58.708Z,1.90
2019-05-18T13:32:24.692Z,1.92
2019-05-18T13:34:50.778Z,2.17
2019-05-18T13:37:16.767Z,1.82
2019-05-18T13:39:42.709Z,1.87
2019-05-18T13:42:08.611Z,1.70
2019-05-18T13:44:34.558Z,1.60
2019-05-18T13:47:00.466Z,1.75
2019-05-18T13:49:26.422Z,1.85
2019-05-18T13:51:52.325Z,1.82
2019-05-18T13:54:18.272Z,1.62
2019-05-18T13:56:44.334Z,1.95
2019-05-18T13:59:10.285Z,1.90
2019-05-18T14:01:36.194Z,1.80
2019-05-18T14:04:02.277Z,1.90
2019-05-18T14:06:28.194Z,2.00
2019-05-18T14:08:54.239Z,2.00
2019-05-18T14:11:20.245Z,1.70
2019-05-18T14:13:46.210Z,1.70
2019-05-18T14:16:12.251Z,1.60
2019-05-18T14:18:38.210Z,1.90
2019-05-18T14:21:04.366Z,1.80
2019-05-18T14:23:30.279Z,1.90
2019-05-18T14:25:56.475Z,1.70
2019-05-18T14:28:22.616Z,1.42
2019-05-18T14:30:48.782Z,1.80
2019-05-18T14:33:15.834Z,2.02
2019-05-18T14:35:41.887Z,1.80
2019-05-18T14:38:09.201Z,1.70
2019-05-18T14:40:35.317Z,1.70
2019-05-18T14:43:01.367Z,1.90
2019-05-18T14:45:28.727Z,1.72
2019-05-18T14:47:54.834Z,2.10
2019-05-18T14:50:21.445Z,2.10
2019-05-18T14:52:47.492Z,2.10
2019-05-18T14:55:13.867Z,1.95
2019-05-18T14:57:39.775Z,1.75
2019-05-18T15:00:06.889Z,2.10
2019-05-18T15:02:32.847Z,1.90
2019-05-18T15:04:58.768Z,2.27
2019-05-18T15:07:25.045Z,1.92
2019-05-18T15:09:51.143Z,2.98
2019-05-18T15:12:17.287Z,1.70
2019-05-18T15:14:43.601Z,1.50
2019-05-18T15:17:10.739Z,1.47
2019-05-18T15:19:36.691Z,1.60
2019-05-18T15:22:02.924Z,1.70
2019-05-18T15:24:28.821Z,1.60
2019-05-18T15:26:54.767Z,1.70
2019-05-18T15:29:20.701Z,1.60
2019-05-18T15:31:46.809Z,1.60
2019-05-18T15:34:12.837Z,1.77
2019-05-18T15:36:38.794Z,1.60
2019-05-18T15:39:05.494Z,1.60
2019-05-18T15:41:31.541Z,1.67
2019-05-18T15:43:57.674Z,1.70
2019-05-18T15:46:23.621Z,1.70
2019-05-18T15:48:49.932Z,1.62
2019-05-18T15:51:16.026Z,1.50
2019-05-18T15:53:42.273Z,1.72
2019-05-18T15:56:08.314Z,1.80
2019-05-18T15:58:34.356Z,1.67
2019-05-18T16:01:00.401Z,1.52
2019-05-18T16:03:26.519Z,1.50
2019-05-18T16:05:52.759Z,1.90
2019-05-18T16:08:18.687Z,1.60
2019-05-18T16:10:44.886Z,1.90
2019-05-18T16:13:10.935Z,1.70
2019-05-18T16:15:36.882Z,1.60
2019-05-18T16:18:04.198Z,2.40
2019-05-18T16:20:30.170Z,1.70
2019-05-18T16:22:56.363Z,1.90
2019-05-18T16:25:22.370Z,1.90
2019-05-18T16:27:48.330Z,2.25
2019-05-18T16:30:15.041Z,2.10
2019-05-18T16:32:41.229Z,1.90
2019-05-18T16:35:07.641Z,1.80
2019-05-18T16:37:33.827Z,1.90
2019-05-18T16:39:59.841Z,2.10
2019-05-18T16:42:26.445Z,2.70
2019-05-18T16:44:52.359Z,2.80
2019-05-18T16:47:18.314Z,3.08
2019-05-18T16:49:44.332Z,3.17
2019-05-18T16:52:10.277Z,2.67
2019-05-18T16:54:36.290Z,2.80
2019-05-18T16:57:02.403Z,3.20
2019-05-18T16:59:28.359Z,2.80
2019-05-18T17:01:55.362Z,2.85
2019-05-18T17:04:21.382Z,2.90
2019-05-18T17:06:47.888Z,2.80
2019-05-18T17:09:14.407Z,2.67
2019-05-18T17:11:40.352Z,3.20
2019-05-18T17:14:06.289Z,3.22
2019-05-18T17:16:32.250Z,3.00
2019-05-18T17:18:58.287Z,3.05
2019-05-18T17:21:24.198Z,3.00
2019-05-18T17:23:53.395Z,3.15
2019-05-18T17:26:18.181Z,3.10
2019-05-18T17:28:44.144Z,3.58
2019-05-18T17:31:10.043Z,3.10
2019-05-18T17:33:35.977Z,3.05
2019-05-18T17:36:01.922Z,3.30
2019-05-18T17:38:29.032Z,3.40
2019-05-18T17:40:54.943Z,2.87
2019-05-18T17:43:20.898Z,3.22
2019-05-18T17:45:46.927Z,3.10
2019-05-18T17:48:13.038Z,3.10
2019-05-18T17:50:39.087Z,2.70
2019-05-18T17:53:05.097Z,3.12
2019-05-18T17:55:31.136Z,2.70
2019-05-18T17:57:57.343Z,3.27
2019-05-18T18:00:23.400Z,3.08
2019-05-18T18:02:49.332Z,3.25
2019-05-18T18:05:15.471Z,3.13
2019-05-18T18:07:41.644Z,3.13
2019-05-18T18:10:08.428Z,3.10
2019-05-18T18:12:34.443Z,2.90
2019-05-18T18:15:00.379Z,2.80
2019-05-18T18:17:26.399Z,2.87
2019-05-18T18:19:52.558Z,2.98
2019-05-18T18:22:18.558Z,2.80
2019-05-18T18:24:44.709Z,2.98
2019-05-18T18:27:24.121Z,3.20
2019-05-18T18:29:38.729Z,3.20
2019-05-18T18:32:04.740Z,4.12
2019-05-18T18:34:30.882Z,3.30
2019-05-18T18:36:56.834Z,4.63
2019-05-18T18:39:23.772Z,5.33
2019-05-18T18:41:50.008Z,4.45
2019-05-18T18:44:15.945Z,2.40
2019-05-18T18:46:41.968Z,1.57
2019-05-18T18:49:07.935Z,2.10
2019-05-18T18:51:33.852Z,1.67
2019-05-18T18:54:01.156Z,1.97
2019-05-18T18:56:28.301Z,2.00
2019-05-18T18:58:54.847Z,1.50
2019-05-18T19:01:20.991Z,1.20
2019-05-18T19:03:46.936Z,1.27
2019-05-18T19:06:12.970Z,1.23
2019-05-18T19:08:38.906Z,1.73
2019-05-18T19:11:05.125Z,1.40
2019-05-18T19:13:31.268Z,1.50
2019-05-18T19:15:57.267Z,1.57
2019-05-18T19:18:23.218Z,1.43
2019-05-18T19:20:49.272Z,1.50
2019-05-18T19:23:15.219Z,1.53
2019-05-18T19:25:41.253Z,1.50
2019-05-18T19:28:07.517Z,1.47
2019-05-18T19:30:33.515Z,1.60
2019-05-18T19:32:59.488Z,1.63
2019-05-18T19:35:25.429Z,1.47
2019-05-18T19:37:51.921Z,1.37
2019-05-18T19:40:18.247Z,1.37
2019-05-18T19:42:44.165Z,1.67
2019-05-18T19:45:10.576Z,1.60
2019-05-18T19:47:36.933Z,1.47
2019-05-18T19:50:05.424Z,1.10
2019-05-18T19:52:31.325Z,1.30
2019-05-18T19:54:57.680Z,1.30
2019-05-18T19:57:23.669Z,1.57
2019-05-18T19:59:49.591Z,1.30
2019-05-18T20:02:18.314Z,1.27
2019-05-18T20:04:43.493Z,1.13
2019-05-18T20:07:09.586Z,1.30
2019-05-18T20:09:35.647Z,3.43
2019-05-18T20:12:01.657Z,1.53
2019-05-18T20:14:27.703Z,1.20
2019-05-18T20:16:53.709Z,1.70
2019-05-18T20:19:19.754Z,1.80
2019-05-18T20:21:45.786Z,1.30
2019-05-18T20:24:11.731Z,1.30
2019-05-18T20:26:38.737Z,1.37
2019-05-18T20:29:04.887Z,1.50
2019-05-18T20:31:30.792Z,1.37
2019-05-18T20:33:57.941Z,1.30
2019-05-18T20:36:23.912Z,2.37
2019-05-18T20:38:50.188Z,1.70
2019-05-18T20:41:16.090Z,1.90
2019-05-18T20:43:43.180Z,1.63
2019-05-18T20:46:09.085Z,1.80
2019-05-18T20:48:35.033Z,2.20
2019-05-18T20:51:01.033Z,1.70
2019-05-18T20:53:26.988Z,1.63
2019-05-18T20:55:53.160Z,1.40
2019-05-18T20:58:19.115Z,1.90
2019-05-18T21:00:45.211Z,2.10
2019-05-18T21:03:11.167Z,3.20
2019-05-18T21:05:37.189Z,3.40
2019-05-18T21:08:03.494Z,3.40
2019-05-18T21:10:29.689Z,4.90
2019-05-18T21:12:55.601Z,5.07
2019-05-18T21:15:21.747Z,5.07
2019-05-18T21:17:48.294Z,5.93
2019-05-18T21:20:14.518Z,4.57
2019-05-18T21:22:40.437Z,4.57
2019-05-18T21:25:06.786Z,4.17
2019-05-18T21:27:32.747Z,3.50
2019-05-18T21:29:58.653Z,2.97
2019-05-18T21:32:25.702Z,2.80
2019-05-18T21:34:51.738Z,3.20
2019-05-18T21:37:17.712Z,3.10
2019-05-18T21:39:43.701Z,2.70
2019-05-18T21:42:09.674Z,2.77
2019-05-18T21:44:35.814Z,2.87
2019-05-18T21:47:01.821Z,2.43
2019-05-18T21:49:27.725Z,2.50
2019-05-18T21:51:53.818Z,2.30
2019-05-18T21:54:19.738Z,2.80
2019-05-18T21:56:45.646Z,2.70
2019-05-18T21:59:12.620Z,2.40
2019-05-18T22:01:38.726Z,2.50
2019-05-18T22:04:04.947Z,2.67
2019-05-18T22:06:30.967Z,2.63
2019-05-18T22:08:56.945Z,2.30
2019-05-18T22:11:22.955Z,2.60
2019-05-18T22:13:50.069Z,2.67
2019-05-18T22:16:15.986Z,2.50
2019-05-18T22:18:42.059Z,2.40
2019-05-18T22:21:08.052Z,3.03
2019-05-18T22:23:34.027Z,2.90
2019-05-18T22:25:59.971Z,2.80
2019-05-18T22:28:25.921Z,2.40
2019-05-18T22:30:51.851Z,2.80
2019-05-18T22:33:17.902Z,2.47
2019-05-18T22:35:43.816Z,2.67
2019-05-18T22:38:09.755Z,2.63
2019-05-18T22:40:35.661Z,2.50
2019-05-18T22:43:01.602Z,2.30
2019-05-18T22:45:27.659Z,2.40
2019-05-18T22:47:54.763Z,2.30
2019-05-18T22:50:20.986Z,2.70
2019-05-18T22:52:47.003Z,2.47
2019-05-18T22:55:13.198Z,2.60
2019-05-18T22:57:40.420Z,2.53
2019-05-18T23:00:06.841Z,2.40
2019-05-18T23:02:34.822Z,2.97
2019-05-18T23:05:00.918Z,2.90
2019-05-18T23:07:26.866Z,2.53
2019-05-18T23:09:52.806Z,2.97
2019-05-18T23:12:18.724Z,3.13
2019-05-18T23:14:44.628Z,3.20
2019-05-18T23:17:10.579Z,2.93
2019-05-18T23:19:36.506Z,3.27
2019-05-18T23:24:40.138Z,4.37
2019-05-18T23:27:06.099Z,3.33
2019-05-18T23:29:32.124Z,3.20
2019-05-18T23:31:58.074Z,3.07
2019-05-18T23:34:24.302Z,3.03
2019-05-18T23:36:50.240Z,3.53
2019-05-18T23:39:16.184Z,3.23
2019-05-18T23:41:42.097Z,3.33
2019-05-18T23:44:08.029Z,3.20
2019-05-18T23:46:33.935Z,3.30
2019-05-18T23:49:10.465Z,2.63
2019-05-18T23:51:28.792Z,3.10
2019-05-18T23:53:54.710Z,3.10
2019-05-18T23:56:21.798Z,3.10
2019-05-18T23:58:47.709Z,3.30
